Doha, Qatar

11:33 PM AST on September 25, 2016 (GMT +0300)
Wakra | | Change Station

Elev 23 ft 25.17 °N, 51.60 °E | Updated 2 seconds ago

Clear
Clear
88.9 °F
Feels Like 89 °F
N
5.4
Wind Variable Wind from NW
Gusts 6.9 mph

Today
High -- | Low -- °F
--% Chance of Precip.
Yesterday
High -- | Low -- °F
Precip. -- in
Pressure 29.68 in
Visibility -9999.0 miles
Clouds
Heat Index 89 °F
Dew Point 61 °F
Humidity 39%
Rainfall in
Snow Depth Not available.
5:23 AM 5:26 PM
Waning Crescent, 25% visible
METAR OTBD 252000Z 31012KT 270V330 CAVOK 32/17 Q1005 NOSIG
Pressure 29.68 in
Visibility -9999.0 miles
Clouds
Heat Index 89 °F
Dew Point 61 °F
Humidity 39%
Rainfall in
Snow Depth Not available.
5:23 AM 5:26 PM
Waning Crescent, 25% visible
METAR OTBD 252000Z 31012KT 270V330 CAVOK 32/17 Q1005 NOSIG

10-Day Weather Forecast

No radar image for this location.
×

Almanac

Astronomy

Sep. 25, 2016 Rise Set
Actual Time
Civil Twilight
Nautical Twilight
Astronomical Twilight
Moon
Length of Visible Light
Length of Day
Tomorrow will be .
, % of the Moon is Illuminated

Today's Extremes

Country Highs Country Lows

Community

WunderPhotos

Upload Photos

1,941,724 photos uploaded!

WunderBlog® & News

Nearby

Air Quality

  Air Quality AQ Index Pollutant
Not available.

Snow Depth

Station Depth Elevation

Earthquake Activity

City Distance Mag. Time & Date
Minimum magnitude displayed is 2.5.

Coastal Water Temperatures

Place Temperature

Stations

Nearby Weather Stations

Station Location Temp. Windchill Dew Point Humidity Wind Precip. Elev Updated Type